Time;durP1;ratioP1;P1;durP2;ratioP2;P2;SDS_P1;SDS_P2;PMS_P1;PMS_P2;Temp;Humidity;BMP_temperature;BMP_pressure;BME280_temperature;BME280_humidity;BME280_pressure;Samples;Min_cycle;Max_cycle;Signal;HPM_P1;HPM_P2
2023/08/29 00:00:13;;;;;;;28.58;22.42;;;;;;;-147.95;100.00;58458.38;5070666;28;20029;-80
2023/08/29 00:02:41;;;;;;;25.80;20.25;;;;;;;-147.95;100.00;58458.38;5083473;28;20078;-80
2023/08/29 00:05:08;;;;;;;29.98;21.38;;;;;;;-147.95;100.00;58458.38;5082372;28;20032;-80
2023/08/29 00:07:34;;;;;;;31.85;21.58;;;;;;;-147.95;100.00;58458.38;5084249;28;20164;-80
2023/08/29 00:09:59;;;;;;;29.40;22.10;;;;;;;-147.95;100.00;58458.38;5061896;28;20484;-81
2023/08/29 00:12:24;;;;;;;32.63;21.77;;;;;;;-147.95;100.00;58458.38;5081589;28;20074;-80
2023/08/29 00:14:50;;;;;;;26.48;19.83;;;;;;;-147.95;100.00;58458.38;5053981;28;20790;-81
2023/08/29 00:17:16;;;;;;;29.17;19.42;;;;;;;-147.95;100.00;58458.38;5088031;28;20059;-80
2023/08/29 00:19:42;;;;;;;25.55;19.30;;;;;;;-147.95;100.00;58458.38;5071397;28;20024;-80
2023/08/29 00:22:07;;;;;;;25.90;17.92;;;;;;;-147.95;100.00;58458.38;5088383;28;20051;-80
2023/08/29 00:24:33;;;;;;;25.33;17.95;;;;;;;-147.95;100.00;58458.38;5071016;28;20059;-80
2023/08/29 00:26:59;;;;;;;29.15;17.42;;;;;;;-147.95;100.00;58458.38;5086909;28;20036;-80
2023/08/29 00:29:26;;;;;;;28.75;18.75;;;;;;;-147.95;100.00;58458.38;5084405;28;20098;-94
2023/08/29 00:31:53;;;;;;;25.05;19.00;;;;;;;-147.95;100.00;58458.38;5072273;28;20568;-96
2023/08/29 00:34:18;;;;;;;28.45;17.83;;;;;;;-147.95;100.00;58458.38;5057770;28;20066;-95
2023/08/29 00:36:44;;;;;;;26.10;17.27;;;;;;;-147.95;100.00;58458.38;5071159;28;20032;-95
2023/08/29 00:39:10;;;;;;;24.35;18.02;;;;;;;-147.95;100.00;58458.38;5083748;28;20040;-95
2023/08/29 00:41:35;;;;;;;23.02;17.38;;;;;;;-147.95;100.00;58458.38;5067603;28;20082;-95
2023/08/29 00:44:01;;;;;;;23.10;16.98;;;;;;;-147.95;100.00;58458.38;5073148;28;20456;-95
2023/08/29 00:46:27;;;;;;;25.00;17.55;;;;;;;-147.95;100.00;58458.38;5098860;28;20123;-94
2023/08/29 00:48:55;;;;;;;27.17;17.25;;;;;;;-147.95;100.00;58458.38;5083722;28;20053;-95
2023/08/29 00:51:22;;;;;;;24.05;17.52;;;;;;;-147.95;100.00;58458.38;5099878;28;20032;-94
2023/08/29 00:53:48;;;;;;;26.45;17.63;;;;;;;-147.95;100.00;58458.38;5078833;28;20048;-96
2023/08/29 00:56:18;;;;;;;23.20;16.70;;;;;;;-147.95;100.00;58458.38;5068296;28;20071;-95
2023/08/29 00:58:44;;;;;;;26.73;16.67;;;;;;;-147.95;100.00;58458.38;5100710;28;20042;-95
2023/08/29 01:01:12;;;;;;;23.83;15.85;;;;;;;-147.95;100.00;58458.38;5068281;28;20446;-95
2023/08/29 01:03:40;;;;;;;19.83;15.40;;;;;;;-147.95;100.00;58458.38;5083529;28;20024;-95
2023/08/29 01:06:07;;;;;;;21.85;15.57;;;;;;;-147.95;100.00;58458.38;5075152;28;20024;-95
2023/08/29 01:08:34;;;;;;;24.17;16.02;;;;;;;-147.95;100.00;58458.38;5064266;28;20040;-95
2023/08/29 01:11:27;;;;;;;21.27;15.85;;;;;;;-147.95;100.00;58458.38;5049632;28;20032;-95
2023/08/29 01:14:08;;;;;;;21.25;14.63;;;;;;;-147.95;100.00;58458.38;5100780;28;20115;-95
2023/08/29 01:16:40;;;;;;;21.17;14.73;;;;;;;-147.95;100.00;58458.38;5094189;28;20016;-94
2023/08/29 01:19:13;;;;;;;27.20;16.17;;;;;;;-147.95;100.00;58458.38;5100575;28;20031;-95
2023/08/29 01:21:57;;;;;;;23.80;14.93;;;;;;;-147.95;100.00;58458.38;5099531;28;20024;-94
2023/08/29 01:24:38;;;;;;;23.80;15.52;;;;;;;-147.95;100.00;58458.38;5101141;28;20032;-94
2023/08/29 01:27:04;;;;;;;25.40;15.73;;;;;;;-147.95;100.00;58458.38;5101021;28;20028;-94
2023/08/29 01:29:33;;;;;;;27.63;15.32;;;;;;;-147.95;100.00;58458.38;5099680;28;20057;-94
2023/08/29 01:31:59;;;;;;;23.25;14.75;;;;;;;-147.95;100.00;58458.38;5083181;28;20028;-94
2023/08/29 01:34:26;;;;;;;25.45;15.55;;;;;;;-147.95;100.00;58458.38;5083225;28;20036;-94
2023/08/29 01:36:52;;;;;;;21.48;14.50;;;;;;;-147.95;100.00;58458.38;5099047;28;20031;-94
2023/08/29 01:39:17;;;;;;;21.05;14.30;;;;;;;-147.95;100.00;58458.38;5064274;28;20363;-81
2023/08/29 01:41:43;;;;;;;20.67;13.82;;;;;;;-147.95;100.00;58458.38;5095729;28;20046;-81
2023/08/29 01:44:08;;;;;;;23.70;13.88;;;;;;;-147.95;100.00;58458.38;5095014;28;20043;-81
2023/08/29 01:46:34;;;;;;;20.98;13.23;;;;;;;-147.95;100.00;58458.38;5090897;28;20036;-81
2023/08/29 01:49:02;;;;;;;17.42;12.60;;;;;;;-147.95;100.00;58458.38;5090080;28;20482;-80
2023/08/29 01:51:28;;;;;;;16.30;12.57;;;;;;;-147.95;100.00;58458.38;5084489;28;20047;-80
2023/08/29 01:53:54;;;;;;;17.35;12.23;;;;;;;-147.95;100.00;58458.38;5056999;28;20028;-81
2023/08/29 01:56:22;;;;;;;17.58;13.32;;;;;;;-147.95;100.00;58458.38;5087120;28;20032;-80
2023/08/29 01:58:49;;;;;;;19.83;12.05;;;;;;;-147.95;100.00;58458.38;5086059;28;20044;-80
2023/08/29 02:01:15;;;;;;;19.75;11.70;;;;;;;-147.95;100.00;58458.38;5092022;28;20363;-80
2023/08/29 02:03:40;;;;;;;16.38;12.05;;;;;;;-147.95;100.00;58458.38;5072392;28;20602;-80
2023/08/29 02:06:07;;;;;;;27.05;13.43;;;;;;;-147.95;100.00;58458.38;5056135;28;20024;-83
2023/08/29 02:08:33;;;;;;;16.25;11.45;;;;;;;-147.95;100.00;58458.38;5089799;28;20028;-82
2023/08/29 02:10:59;;;;;;;17.15;11.85;;;;;;;-147.95;100.00;58458.38;5092147;28;20391;-82
2023/08/29 02:13:24;;;;;;;17.20;11.93;;;;;;;-147.95;100.00;58458.38;5065580;28;20031;-79
2023/08/29 02:15:49;;;;;;;19.58;11.45;;;;;;;-147.95;100.00;58458.38;5085296;28;20097;-81
2023/08/29 02:18:15;;;;;;;15.63;11.65;;;;;;;-147.95;100.00;58458.38;5057868;28;20024;-80
2023/08/29 02:20:40;;;;;;;17.25;12.40;;;;;;;-147.95;100.00;58458.38;5089731;28;20330;-81
2023/08/29 02:23:07;;;;;;;18.30;12.73;;;;;;;-147.95;100.00;58458.38;5086353;28;20107;-81
2023/08/29 02:25:32;;;;;;;23.90;12.68;;;;;;;-147.95;100.00;58458.38;5073656;28;20084;-81
2023/08/29 02:27:58;;;;;;;18.73;11.90;;;;;;;-147.95;100.00;58458.38;5084189;28;20490;-81
2023/08/29 02:30:23;;;;;;;17.95;13.13;;;;;;;-147.95;100.00;58458.38;5088619;28;20134;-81
2023/08/29 02:32:49;;;;;;;17.10;11.88;;;;;;;-147.95;100.00;58458.38;5088098;28;20016;-81
2023/08/29 02:35:14;;;;;;;23.10;12.70;;;;;;;-147.95;100.00;58458.38;5090037;28;20032;-81
2023/08/29 02:37:40;;;;;;;17.88;12.35;;;;;;;-147.95;100.00;58458.38;5064224;28;20503;-81
2023/08/29 02:40:08;;;;;;;17.25;11.70;;;;;;;-147.95;100.00;58458.38;5053531;28;20103;-81
2023/08/29 02:42:34;;;;;;;15.88;11.60;;;;;;;-147.95;100.00;58458.38;5072345;28;20398;-81
2023/08/29 02:44:59;;;;;;;23.88;12.68;;;;;;;-147.95;100.00;58458.38;5087436;28;20466;-80
2023/08/29 02:47:24;;;;;;;20.30;11.70;;;;;;;-147.95;100.00;58458.38;5065857;28;20086;-80
2023/08/29 02:49:50;;;;;;;18.27;12.00;;;;;;;-147.95;100.00;58458.38;5071575;28;20490;-81
2023/08/29 02:52:15;;;;;;;17.17;11.57;;;;;;;-147.95;100.00;58458.38;5064108;28;20050;-80
2023/08/29 02:54:41;;;;;;;24.58;12.85;;;;;;;-147.95;100.00;58458.38;5081306;28;20036;-80
2023/08/29 02:57:07;;;;;;;21.90;11.85;;;;;;;-147.95;100.00;58458.38;5089109;28;20032;-81
2023/08/29 02:59:34;;;;;;;22.38;11.68;;;;;;;-147.95;100.00;58458.38;5083778;28;20162;-81
2023/08/29 03:02:02;;;;;;;19.65;12.13;;;;;;;-147.95;100.00;58458.38;5073324;28;20023;-80
2023/08/29 03:04:29;;;;;;;21.90;12.27;;;;;;;-147.95;100.00;58458.38;5056948;28;20435;-80
2023/08/29 03:06:54;;;;;;;17.67;12.80;;;;;;;-147.95;100.00;58458.38;5083572;28;20398;-80
2023/08/29 03:09:20;;;;;;;16.20;12.20;;;;;;;-147.95;100.00;58458.38;5083360;28;20036;-80
2023/08/29 03:11:45;;;;;;;18.00;12.60;;;;;;;-147.95;100.00;58458.38;5085391;28;20099;-80
2023/08/29 03:14:10;;;;;;;21.83;12.77;;;;;;;-147.95;100.00;58458.38;5054850;28;20058;-80
2023/08/29 03:16:36;;;;;;;18.27;12.65;;;;;;;-147.95;100.00;58458.38;5071878;28;20482;-80
2023/08/29 03:19:02;;;;;;;22.52;12.82;;;;;;;-147.95;100.00;58458.38;5069751;28;20465;-81
2023/08/29 03:21:28;;;;;;;19.00;12.52;;;;;;;-147.95;100.00;58458.38;5072757;28;20043;-80
2023/08/29 03:23:53;;;;;;;18.13;12.23;;;;;;;-147.95;100.00;58458.38;5055958;28;20035;-80
2023/08/29 03:26:19;;;;;;;20.52;13.07;;;;;;;-147.95;100.00;58458.38;5084947;28;20051;-80
2023/08/29 03:28:45;;;;;;;18.30;12.65;;;;;;;-147.95;100.00;58458.38;5081178;28;20089;-80
2023/08/29 03:31:16;;;;;;;18.48;12.82;;;;;;;-147.95;100.00;58458.38;5056128;28;20111;-80
2023/08/29 03:33:43;;;;;;;16.73;12.45;;;;;;;-147.95;100.00;58458.38;5085215;28;20074;-80
2023/08/29 03:36:09;;;;;;;19.40;11.73;;;;;;;-147.95;100.00;58458.38;5070066;28;20111;-81
2023/08/29 03:38:38;;;;;;;16.45;11.55;;;;;;;-147.95;100.00;58458.38;5090046;28;20028;-80
2023/08/29 03:41:04;;;;;;;19.50;12.80;;;;;;;-147.95;100.00;58458.38;5070168;28;20020;-81
2023/08/29 03:43:31;;;;;;;19.75;11.88;;;;;;;-147.95;100.00;58458.38;5087631;28;20051;-80
2023/08/29 03:45:59;;;;;;;21.45;13.65;;;;;;;-147.95;100.00;58458.38;5081627;28;20027;-80
2023/08/29 03:48:25;;;;;;;22.05;12.82;;;;;;;-147.95;100.00;58458.38;5087699;28;20110;-80
2023/08/29 03:50:50;;;;;;;20.02;13.40;;;;;;;-147.95;100.00;58458.38;5085265;28;20479;-80
2023/08/29 03:53:16;;;;;;;25.02;12.95;;;;;;;-147.95;100.00;58458.38;5072908;28;20028;-80
2023/08/29 03:55:41;;;;;;;24.33;12.32;;;;;;;-147.95;100.00;58458.38;5075889;28;20047;-80
2023/08/29 03:58:07;;;;;;;19.85;12.88;;;;;;;-147.95;100.00;58458.38;5064792;28;20074;-80
2023/08/29 04:00:34;;;;;;;19.67;12.82;;;;;;;-147.95;100.00;58458.38;5091051;28;20082;-95
2023/08/29 04:03:00;;;;;;;22.40;13.05;;;;;;;-147.95;100.00;58458.38;5093676;28;20089;-95
2023/08/29 04:05:27;;;;;;;23.38;13.52;;;;;;;-147.95;100.00;58458.38;5086793;28;20024;-89
2023/08/29 04:07:52;;;;;;;18.75;13.43;;;;;;;-147.95;100.00;58458.38;5076574;28;20036;-90
2023/08/29 04:10:18;;;;;;;19.17;12.40;;;;;;;-147.95;100.00;58458.38;5056577;28;20037;-90
2023/08/29 04:12:44;;;;;;;16.63;12.15;;;;;;;-147.95;100.00;58458.38;5084580;28;20028;-89
2023/08/29 04:15:12;;;;;;;24.55;12.35;;;;;;;-147.95;100.00;58458.38;5084247;28;20028;-90
2023/08/29 04:17:38;;;;;;;18.48;12.95;;;;;;;-147.95;100.00;58458.38;5076258;28;20043;-90
2023/08/29 04:20:08;;;;;;;18.10;13.23;;;;;;;-147.95;100.00;58458.38;5058253;28;20033;-89
2023/08/29 04:22:38;;;;;;;20.88;13.98;;;;;;;-147.95;100.00;58458.38;5075896;28;20020;-88
2023/08/29 04:25:05;;;;;;;19.10;12.13;;;;;;;-147.95;100.00;58458.38;5065047;28;20487;-86
2023/08/29 04:27:30;;;;;;;20.80;13.70;;;;;;;-147.95;100.00;58458.38;5089843;28;20073;-87
2023/08/29 04:29:56;;;;;;;19.63;12.75;;;;;;;-147.95;100.00;58458.38;5073173;28;20036;-88
2023/08/29 04:32:23;;;;;;;18.90;12.88;;;;;;;-147.95;100.00;58458.38;5088454;28;20047;-88
2023/08/29 04:34:48;;;;;;;21.88;13.05;;;;;;;-147.95;100.00;58458.38;5091432;28;20035;-82
2023/08/29 04:37:14;;;;;;;18.05;12.18;;;;;;;-147.95;100.00;58458.38;5084805;28;20031;-83
2023/08/29 04:39:39;;;;;;;24.85;13.88;;;;;;;-147.95;100.00;58458.38;5082670;28;20056;-84
2023/08/29 04:42:05;;;;;;;20.13;12.10;;;;;;;-147.95;100.00;58458.38;5086270;28;20085;-83
2023/08/29 04:44:31;;;;;;;21.45;13.55;;;;;;;-147.95;100.00;58458.38;5085083;28;20509;-83
2023/08/29 04:46:56;;;;;;;18.42;12.77;;;;;;;-147.95;100.00;58458.38;5079303;28;20064;-83
2023/08/29 04:49:22;;;;;;;17.27;12.43;;;;;;;-147.95;100.00;58458.38;5071541;28;20032;-83
2023/08/29 04:51:47;;;;;;;25.17;13.48;;;;;;;-147.95;100.00;58458.38;5068054;28;20028;-83
2023/08/29 04:54:13;;;;;;;22.42;13.25;;;;;;;-147.95;100.00;58458.38;5083837;28;20325;-85
2023/08/29 04:56:38;;;;;;;20.45;13.05;;;;;;;-147.95;100.00;58458.38;5084420;28;20032;-85
2023/08/29 04:59:04;;;;;;;19.25;13.07;;;;;;;-147.95;100.00;58458.38;5085378;28;20098;-85
2023/08/29 05:01:29;;;;;;;22.70;14.07;;;;;;;-147.95;100.00;58458.38;5070642;28;20036;-85
2023/08/29 05:03:54;;;;;;;22.42;13.65;;;;;;;-147.95;100.00;58458.38;5084671;28;20040;-85
2023/08/29 05:06:20;;;;;;;18.17;12.95;;;;;;;-147.95;100.00;58458.38;5080357;28;20028;-85
2023/08/29 05:08:45;;;;;;;24.40;14.00;;;;;;;-147.95;100.00;58458.38;5053386;28;20035;-86
2023/08/29 05:11:11;;;;;;;23.38;13.07;;;;;;;-147.95;100.00;58458.38;5061331;28;20464;-78
2023/08/29 05:13:36;;;;;;;22.17;13.00;;;;;;;-147.95;100.00;58458.38;5086330;28;20093;-78
2023/08/29 05:16:03;;;;;;;25.08;13.20;;;;;;;-147.95;100.00;58458.38;5063937;28;20039;-78
2023/08/29 05:18:28;;;;;;;18.35;12.68;;;;;;;-147.95;100.00;58458.38;5069427;28;20031;-78
2023/08/29 05:20:55;;;;;;;17.80;13.10;;;;;;;-147.95;100.00;58458.38;5086252;28;20020;-79
2023/08/29 05:23:21;;;;;;;18.48;12.85;;;;;;;-147.95;100.00;58458.38;5087679;28;20032;-79
2023/08/29 05:25:47;;;;;;;20.98;12.48;;;;;;;-147.95;100.00;58458.38;5089836;28;20024;-78
2023/08/29 05:28:12;;;;;;;21.77;13.32;;;;;;;-147.95;100.00;58458.38;5066793;28;20490;-78
2023/08/29 05:30:38;;;;;;;22.08;13.90;;;;;;;-147.95;100.00;58458.38;5065242;28;20055;-78
2023/08/29 05:33:03;;;;;;;21.92;13.48;;;;;;;-147.95;100.00;58458.38;5090853;28;20394;-78
2023/08/29 05:35:29;;;;;;;26.15;14.35;;;;;;;-147.95;100.00;58458.38;5080661;28;20047;-79
2023/08/29 05:37:54;;;;;;;40.95;14.85;;;;;;;-147.95;100.00;58458.38;5070088;28;20028;-78
2023/08/29 05:40:19;;;;;;;30.83;14.93;;;;;;;-147.95;100.00;58458.38;5069631;28;20032;-78
2023/08/29 05:42:45;;;;;;;21.33;14.52;;;;;;;-147.95;100.00;58458.38;5084016;28;20035;-79
2023/08/29 05:45:11;;;;;;;28.58;14.07;;;;;;;-147.95;100.00;58458.38;5086982;28;20027;-79
2023/08/29 05:47:37;;;;;;;19.33;14.18;;;;;;;-147.95;100.00;58458.38;5058371;28;20038;-78
2023/08/29 05:50:02;;;;;;;22.38;14.60;;;;;;;-147.95;100.00;58458.38;5073546;28;20020;-79
2023/08/29 05:52:28;;;;;;;23.85;14.82;;;;;;;-147.95;100.00;58458.38;5084198;28;20605;-79
2023/08/29 05:54:53;;;;;;;19.58;14.05;;;;;;;-147.95;100.00;58458.38;5085437;28;20033;-78
2023/08/29 05:57:20;;;;;;;21.67;14.82;;;;;;;-147.95;100.00;58458.38;5087222;28;20035;-79
2023/08/29 05:59:45;;;;;;;22.33;14.40;;;;;;;-147.95;100.00;58458.38;5056957;28;20077;-79
2023/08/29 06:02:11;;;;;;;23.75;14.45;;;;;;;-147.95;100.00;58458.38;5084104;28;20036;-78
2023/08/29 06:04:37;;;;;;;23.13;14.85;;;;;;;-147.95;100.00;58458.38;5078695;28;20032;-78
2023/08/29 06:07:04;;;;;;;24.00;16.80;;;;;;;-147.95;100.00;58458.38;5088513;28;20592;-78
2023/08/29 06:09:31;;;;;;;23.75;14.65;;;;;;;-147.95;100.00;58458.38;5088705;28;20104;-80
2023/08/29 06:11:56;;;;;;;20.33;15.05;;;;;;;-147.95;100.00;58458.38;5087418;28;20031;-79
2023/08/29 06:14:22;;;;;;;21.50;15.75;;;;;;;-147.95;100.00;58458.38;5072082;28;20794;-80
2023/08/29 06:16:47;;;;;;;28.65;15.82;;;;;;;-147.95;100.00;58458.38;5069919;28;20032;-79
2023/08/29 06:19:13;;;;;;;22.13;15.18;;;;;;;-147.95;100.00;58458.38;5055370;28;20028;-79
2023/08/29 06:21:39;;;;;;;29.98;15.98;;;;;;;-147.95;100.00;58458.38;5086176;28;20032;-80
2023/08/29 06:24:05;;;;;;;19.95;14.57;;;;;;;-147.95;100.00;58458.38;5072080;28;20024;-79
2023/08/29 06:26:31;;;;;;;25.20;15.77;;;;;;;-147.95;100.00;58458.38;5066331;28;20097;-80
2023/08/29 06:28:56;;;;;;;24.85;16.83;;;;;;;-147.95;100.00;58458.38;5059354;28;20106;-80
2023/08/29 06:31:21;;;;;;;22.60;15.00;;;;;;;-147.95;100.00;58458.38;5068955;28;20150;-80
2023/08/29 06:33:47;;;;;;;25.73;16.15;;;;;;;-147.95;100.00;58458.38;5091995;28;20082;-80
2023/08/29 06:36:12;;;;;;;26.23;17.27;;;;;;;-147.95;100.00;58458.38;5052986;28;20044;-80
2023/08/29 06:38:39;;;;;;;27.17;17.35;;;;;;;-147.95;100.00;58458.38;5089191;28;20065;-80
2023/08/29 06:41:04;;;;;;;26.33;16.05;;;;;;;-147.95;100.00;58458.38;5091351;28;20016;-79
2023/08/29 06:43:30;;;;;;;24.25;16.17;;;;;;;-147.95;100.00;58458.38;5072545;28;20110;-80
2023/08/29 06:45:56;;;;;;;28.63;15.25;;;;;;;-147.95;100.00;58458.38;5085806;28;20062;-80
2023/08/29 06:48:21;;;;;;;21.08;14.98;;;;;;;-147.95;100.00;58458.38;5052484;28;20058;-79
2023/08/29 06:50:46;;;;;;;19.90;14.85;;;;;;;-147.95;100.00;58458.38;5089526;28;20482;-80
2023/08/29 06:53:12;;;;;;;20.98;14.63;;;;;;;-147.95;100.00;58458.38;5072950;28;20079;-79
2023/08/29 06:55:38;;;;;;;26.90;15.55;;;;;;;-147.95;100.00;58458.38;5085729;28;20032;-79
2023/08/29 06:58:05;;;;;;;19.95;15.45;;;;;;;-147.95;100.00;58458.38;5055812;28;20098;-79
2023/08/29 07:00:31;;;;;;;19.70;14.20;;;;;;;-147.95;100.00;58458.38;5072425;28;20044;-79
2023/08/29 07:02:58;;;;;;;20.17;14.68;;;;;;;-147.95;100.00;58458.38;5086183;28;20059;-80
2023/08/29 07:05:23;;;;;;;20.05;13.88;;;;;;;-147.95;100.00;58458.38;5072468;28;20498;-79
2023/08/29 07:07:49;;;;;;;21.55;14.50;;;;;;;-147.95;100.00;58458.38;5088379;28;20081;-79
2023/08/29 07:10:14;;;;;;;18.80;14.40;;;;;;;-147.95;100.00;58458.38;5089945;28;20028;-79
2023/08/29 07:12:40;;;;;;;16.92;13.50;;;;;;;-147.95;100.00;58458.38;5084576;28;20036;-79
2023/08/29 07:15:06;;;;;;;19.23;12.55;;;;;;;-147.95;100.00;58458.38;5084375;28;20077;-79
2023/08/29 07:17:32;;;;;;;20.20;13.10;;;;;;;-147.95;100.00;58458.38;5080687;28;20135;-79
2023/08/29 07:19:57;;;;;;;15.25;12.07;;;;;;;-147.95;100.00;58458.38;5083105;28;20028;-80
2023/08/29 07:22:23;;;;;;;20.45;12.27;;;;;;;-147.95;100.00;58458.38;5069113;28;20115;-80
2023/08/29 07:24:48;;;;;;;15.73;11.25;;;;;;;-147.95;100.00;58458.38;5067247;28;20432;-79
2023/08/29 07:27:14;;;;;;;14.85;10.88;;;;;;;-147.95;100.00;58458.38;5082577;28;20062;-79
2023/08/29 07:29:41;;;;;;;14.45;10.90;;;;;;;-147.95;100.00;58458.38;5082125;28;20020;-79
2023/08/29 07:32:07;;;;;;;19.15;9.70;;;;;;;-147.95;100.00;58458.38;5084604;28;20859;-79
2023/08/29 07:34:32;;;;;;;14.05;9.52;;;;;;;-147.95;100.00;58458.38;5089540;28;20111;-79
2023/08/29 07:36:57;;;;;;;15.70;10.20;;;;;;;-147.95;100.00;58458.38;5083627;28;20128;-79
2023/08/29 07:39:24;;;;;;;14.38;9.45;;;;;;;-147.95;100.00;58458.38;5068077;28;20040;-79
2023/08/29 07:41:50;;;;;;;12.07;8.32;;;;;;;-147.95;100.00;58458.38;5079660;28;20062;-79
2023/08/29 07:44:15;;;;;;;12.07;8.77;;;;;;;-147.95;100.00;58458.38;5069175;28;20060;-79
2023/08/29 07:46:41;;;;;;;17.98;9.45;;;;;;;-147.95;100.00;58458.38;5089190;28;20040;-79
2023/08/29 07:49:13;;;;;;;10.48;8.63;;;;;;;-147.95;100.00;58458.38;5085007;28;20461;-79
2023/08/29 07:51:41;;;;;;;11.40;10.20;;;;;;;-147.95;100.00;58458.38;5079181;28;20036;-79
2023/08/29 07:54:07;;;;;;;11.85;9.02;;;;;;;-147.95;100.00;58458.38;5074724;28;20625;-79
2023/08/29 07:56:32;;;;;;;15.95;8.80;;;;;;;-147.95;100.00;58458.38;5058452;28;20028;-79
2023/08/29 07:58:57;;;;;;;12.68;8.90;;;;;;;-147.95;100.00;58458.38;5076240;28;20027;-80
2023/08/29 08:01:26;;;;;;;11.27;8.82;;;;;;;-147.95;100.00;58458.38;5058726;28;20095;-79
2023/08/29 08:03:52;;;;;;;12.82;9.27;;;;;;;-147.95;100.00;58458.38;5067783;28;20067;-79
2023/08/29 08:06:17;;;;;;;9.55;8.13;;;;;;;-147.95;100.00;58458.38;5070822;28;20055;-79
2023/08/29 08:08:42;;;;;;;11.23;7.40;;;;;;;-147.95;100.00;58458.38;5068493;28;20028;-79
2023/08/29 08:11:08;;;;;;;15.60;7.72;;;;;;;-147.95;100.00;58458.38;5083106;28;20487;-79
2023/08/29 08:13:34;;;;;;;9.52;6.40;;;;;;;-147.95;100.00;58458.38;5052842;28;20028;-79
2023/08/29 08:15:59;;;;;;;11.13;6.50;;;;;;;-147.95;100.00;58458.38;5088888;28;20608;-79
2023/08/29 08:18:25;;;;;;;10.40;5.97;;;;;;;-147.95;100.00;58458.38;5085962;28;20032;-79
2023/08/29 08:20:52;;;;;;;8.70;6.15;;;;;;;-147.95;100.00;58458.38;5087063;28;20024;-80
2023/08/29 08:23:17;;;;;;;11.00;6.15;;;;;;;-147.95;100.00;58458.38;5082992;28;20403;-80
2023/08/29 08:25:44;;;;;;;9.50;6.63;;;;;;;-147.95;100.00;58458.38;5070437;28;20501;-80
2023/08/29 08:28:10;;;;;;;7.88;5.70;;;;;;;-147.95;100.00;58458.38;5086833;28;20032;-80
2023/08/29 08:30:39;;;;;;;6.55;5.32;;;;;;;-147.95;100.00;58458.38;5081327;28;20425;-79
2023/08/29 08:33:05;;;;;;;7.82;5.68;;;;;;;-147.95;100.00;58458.38;5065345;28;20024;-80
2023/08/29 08:35:31;;;;;;;40.42;7.05;;;;;;;-147.95;100.00;58458.38;5087059;28;20024;-80
2023/08/29 08:37:56;;;;;;;36.67;7.13;;;;;;;-147.95;100.00;58458.38;5067674;28;20020;-79
2023/08/29 08:40:23;;;;;;;8.13;5.30;;;;;;;-147.95;100.00;58458.38;5063854;28;20127;-79
2023/08/29 08:42:48;;;;;;;6.47;5.22;;;;;;;-147.95;100.00;58458.38;5094953;28;20035;-79
2023/08/29 08:45:14;;;;;;;13.70;6.18;;;;;;;-147.95;100.00;58458.38;5070808;28;20028;-79
2023/08/29 08:47:40;;;;;;;10.27;4.95;;;;;;;-147.95;100.00;58458.38;5067214;28;20043;-79
2023/08/29 08:50:10;;;;;;;6.78;3.63;;;;;;;-147.95;100.00;58458.38;5075168;28;20043;-79
2023/08/29 08:52:38;;;;;;;6.93;3.70;;;;;;;-147.95;100.00;58458.38;5086823;28;20038;-80
2023/08/29 08:55:04;;;;;;;10.07;3.88;;;;;;;-147.95;100.00;58458.38;5084224;28;20077;-79
2023/08/29 08:57:30;;;;;;;9.10;4.22;;;;;;;-147.95;100.00;58458.38;5083255;28;20421;-79
2023/08/29 08:59:55;;;;;;;7.40;4.88;;;;;;;-147.95;100.00;58458.38;5089236;28;20102;-79
2023/08/29 09:02:21;;;;;;;4.50;3.45;;;;;;;-147.95;100.00;58458.38;5070410;28;20475;-80
2023/08/29 09:04:46;;;;;;;3.33;2.92;;;;;;;-147.95;100.00;58458.38;5074399;28;20038;-80
2023/08/29 09:07:11;;;;;;;4.35;3.10;;;;;;;-147.95;100.00;58458.38;5090852;28;20141;-80
2023/08/29 09:09:37;;;;;;;8.20;4.22;;;;;;;-147.95;100.00;58458.38;5071241;28;20048;-80
2023/08/29 09:12:03;;;;;;;5.97;4.32;;;;;;;-147.95;100.00;58458.38;5089029;28;20545;-80
2023/08/29 09:14:29;;;;;;;4.45;3.88;;;;;;;-147.95;100.00;58458.38;5088229;28;20044;-80
2023/08/29 09:16:59;;;;;;;5.53;4.53;;;;;;;-147.95;100.00;58458.38;5092269;28;20020;-80
2023/08/29 09:19:29;;;;;;;9.50;4.72;;;;;;;-147.95;100.00;58458.38;5088999;28;20050;-80
2023/08/29 09:21:54;;;;;;;3.88;3.50;;;;;;;-147.95;100.00;58458.38;5083117;28;20440;-80
2023/08/29 09:24:31;;;;;;;5.88;3.67;;;;;;;-147.95;100.00;58458.38;5088916;28;20024;-81
2023/08/29 09:26:57;;;;;;;4.32;3.20;;;;;;;-147.95;100.00;58458.38;5090750;28;20095;-80
2023/08/29 09:29:24;;;;;;;9.13;4.15;;;;;;;-147.95;100.00;58458.38;5088444;28;20424;-80
2023/08/29 09:31:50;;;;;;;11.07;5.07;;;;;;;-147.95;100.00;58458.38;5090774;28;20043;-80
2023/08/29 09:34:30;;;;;;;9.02;5.63;;;;;;;-147.95;100.00;58458.38;5089734;28;20032;-80
2023/08/29 09:36:57;;;;;;;8.02;5.63;;;;;;;-147.95;100.00;58458.38;5074912;28;20064;-80
2023/08/29 09:39:23;;;;;;;8.98;5.18;;;;;;;-147.95;100.00;58458.38;5080756;28;20062;-80
2023/08/29 09:42:04;;;;;;;10.52;5.00;;;;;;;-147.95;100.00;58458.38;5074050;28;20051;-80
2023/08/29 09:44:38;;;;;;;8.15;5.47;;;;;;;-147.95;100.00;58458.38;5083185;28;20073;-80
2023/08/29 09:47:09;;;;;;;11.05;4.25;;;;;;;-147.95;100.00;58458.38;5080686;28;20051;-80
2023/08/29 09:49:48;;;;;;;6.57;4.90;;;;;;;-147.95;100.00;58458.38;5080713;28;20032;-80
2023/08/29 09:52:15;;;;;;;10.30;4.88;;;;;;;-147.95;100.00;58458.38;5081014;28;20036;-80
2023/08/29 09:54:48;;;;;;;9.23;5.38;;;;;;;-147.95;100.00;58458.38;5087757;28;20040;-80
2023/08/29 09:57:15;;;;;;;8.55;5.13;;;;;;;-147.95;100.00;58458.38;5087112;28;20055;-81
2023/08/29 09:59:42;;;;;;;7.28;5.57;;;;;;;-147.95;100.00;58458.38;5088209;28;20481;-81
2023/08/29 10:02:13;;;;;;;7.32;5.32;;;;;;;-147.95;100.00;58458.38;5087859;28;20068;-81
2023/08/29 10:04:45;;;;;;;5.15;4.07;;;;;;;-147.95;100.00;58458.38;5085328;28;20040;-80
2023/08/29 10:07:15;;;;;;;7.33;3.30;;;;;;;-147.95;100.00;58458.38;5080493;28;20089;-80
2023/08/29 10:09:42;;;;;;;5.00;3.22;;;;;;;-147.95;100.00;58458.38;5097517;28;20027;-80
2023/08/29 10:12:08;;;;;;;7.82;3.88;;;;;;;-147.95;100.00;58458.38;5070620;28;20039;-80
2023/08/29 10:14:35;;;;;;;3.70;3.33;;;;;;;-147.95;100.00;58458.38;5089329;28;20024;-80
2023/08/29 10:17:01;;;;;;;9.70;3.50;;;;;;;-147.95;100.00;58458.38;5083947;28;20061;-80
2023/08/29 10:19:29;;;;;;;6.32;2.70;;;;;;;-147.95;100.00;58458.38;5091369;28;20055;-79
2023/08/29 10:21:55;;;;;;;11.00;5.82;;;;;;;-147.95;100.00;58458.38;5084736;28;20035;-80
2023/08/29 10:24:22;;;;;;;7.20;4.60;;;;;;;-147.95;100.00;58458.38;5085515;28;20040;-79
2023/08/29 10:26:49;;;;;;;8.55;5.65;;;;;;;-147.95;100.00;58458.38;5080855;28;20028;-80
2023/08/29 10:29:16;;;;;;;10.35;5.60;;;;;;;-147.95;100.00;58458.38;5088901;28;20020;-80
2023/08/29 10:31:44;;;;;;;11.18;6.65;;;;;;;-147.95;100.00;58458.38;5079229;28;20024;-80
2023/08/29 10:34:10;;;;;;;9.27;4.15;;;;;;;-147.95;100.00;58458.38;5090287;28;20035;-79
2023/08/29 10:36:39;;;;;;;6.75;4.07;;;;;;;-147.95;100.00;58458.38;5086267;28;20032;-79
2023/08/29 10:39:09;;;;;;;4.45;3.00;;;;;;;-147.95;100.00;58458.38;5088512;28;20023;-79
2023/08/29 10:41:44;;;;;;;4.25;3.03;;;;;;;-147.95;100.00;58458.38;5088617;28;20039;-79
2023/08/29 10:44:35;;;;;;;8.00;4.57;;;;;;;-147.95;100.00;58458.38;5084030;28;20031;-79
2023/08/29 10:47:26;;;;;;;6.15;4.68;;;;;;;-147.95;100.00;58458.38;5083245;28;20040;-79
2023/08/29 10:50:03;;;;;;;8.13;5.90;;;;;;;-147.95;100.00;58458.38;5086338;28;20116;-79
2023/08/29 10:52:41;;;;;;;5.20;3.80;;;;;;;-147.95;100.00;58458.38;5087625;28;20028;-80
2023/08/29 10:55:22;;;;;;;4.28;3.15;;;;;;;-147.95;100.00;58458.38;5087224;28;20394;-81